Terminal Aerodrome Forecast
Issued by NWS

Home | Current Version | Previous Version | Text Only | Print | Product List | Glossary On
Versions: 1 2 3 4 5 6 7 8 9 10 11 12 13 14
974
FTUS43 KICT 260522
TAFRSL
TAF
KRSL 260522Z 2606/2706 35012KT 5SM BR VCSH OVC006
      TEMPO 2606/2610 3SM BR OVC004
     FM261400 35012KT P6SM OVC012
     FM261800 36012KT P6SM BKN020
     FM262100 01010KT P6SM BKN040=

USA.gov is the U.S. government's official web portal to all federal, state and local government web resources and services.